sensor_id;sensor_type;location;lat;lon;timestamp;temperature;humidity
2407;DHT22;37709;53.480;9.688;2022-11-20T00:01:30;0.00;99.90
2407;DHT22;37709;53.480;9.688;2022-11-20T00:03:58;0.00;99.90
2407;DHT22;37709;53.480;9.688;2022-11-20T00:06:27;0.00;99.90
2407;DHT22;37709;53.480;9.688;2022-11-20T00:08:56;0.00;99.90
2407;DHT22;37709;53.480;9.688;2022-11-20T00:11:29;0.00;99.90
2407;DHT22;37709;53.480;9.688;2022-11-20T00:13:59;0.00;99.90
2407;DHT22;37709;53.480;9.688;2022-11-20T00:16:28;0.00;99.90
2407;DHT22;37709;53.480;9.688;2022-11-20T00:18:57;0.00;99.90
2407;DHT22;37709;53.480;9.688;2022-11-20T00:21:26;0.00;99.90
2407;DHT22;37709;53.480;9.688;2022-11-20T00:23:55;0.00;99.90
2407;DHT22;37709;53.480;9.688;2022-11-20T00:26:25;0.00;99.90
2407;DHT22;37709;53.480;9.688;2022-11-20T00:28:54;0.00;99.90
2407;DHT22;37709;53.480;9.688;2022-11-20T00:31:22;0.00;99.90
2407;DHT22;37709;53.480;9.688;2022-11-20T00:33:50;0.00;99.90
2407;DHT22;37709;53.480;9.688;2022-11-20T00:36:21;0.00;99.90
2407;DHT22;37709;53.480;9.688;2022-11-20T00:38:57;0.00;99.90
2407;DHT22;37709;53.480;9.688;2022-11-20T00:41:28;-0.10;99.90
2407;DHT22;37709;53.480;9.688;2022-11-20T00:43:56;-0.10;99.90
2407;DHT22;37709;53.480;9.688;2022-11-20T00:46:26;-0.10;99.90
2407;DHT22;37709;53.480;9.688;2022-11-20T00:48:54;-0.10;99.90
2407;DHT22;37709;53.480;9.688;2022-11-20T00:51:23;-0.20;99.90
2407;DHT22;37709;53.480;9.688;2022-11-20T00:53:51;-0.20;99.90
2407;DHT22;37709;53.480;9.688;2022-11-20T00:56:19;-0.20;99.90
2407;DHT22;37709;53.480;9.688;2022-11-20T00:58:50;-0.20;99.90
2407;DHT22;37709;53.480;9.688;2022-11-20T01:01:22;-0.30;99.90
2407;DHT22;37709;53.480;9.688;2022-11-20T01:03:55;-0.30;99.90
2407;DHT22;37709;53.480;9.688;2022-11-20T01:06:28;-0.30;99.90
2407;DHT22;37709;53.480;9.688;2022-11-20T01:08:58;-0.20;99.90
2407;DHT22;37709;53.480;9.688;2022-11-20T01:11:28;-0.30;99.90
2407;DHT22;37709;53.480;9.688;2022-11-20T01:13:57;-0.20;99.90
2407;DHT22;37709;53.480;9.688;2022-11-20T01:16:32;-0.30;99.90
2407;DHT22;37709;53.480;9.688;2022-11-20T01:19:01;-0.30;99.90
2407;DHT22;37709;53.480;9.688;2022-11-20T01:21:34;-0.30;99.90
2407;DHT22;37709;53.480;9.688;2022-11-20T01:24:02;-0.40;99.90
2407;DHT22;37709;53.480;9.688;2022-11-20T01:26:33;-0.40;99.90
2407;DHT22;37709;53.480;9.688;2022-11-20T01:29:01;-0.40;99.90
2407;DHT22;37709;53.480;9.688;2022-11-20T01:31:31;-0.40;99.90
2407;DHT22;37709;53.480;9.688;2022-11-20T01:34:07;-0.40;99.90
2407;DHT22;37709;53.480;9.688;2022-11-20T01:36:37;-0.40;99.90
2407;DHT22;37709;53.480;9.688;2022-11-20T01:39:16;-0.50;99.90
2407;DHT22;37709;53.480;9.688;2022-11-20T01:41:45;-0.50;99.90
2407;DHT22;37709;53.480;9.688;2022-11-20T01:44:56;-0.60;99.90
2407;DHT22;37709;53.480;9.688;2022-11-20T01:47:31;-0.60;99.90
2407;DHT22;37709;53.480;9.688;2022-11-20T01:50:05;-0.60;99.90
2407;DHT22;37709;53.480;9.688;2022-11-20T01:52:41;-0.60;99.90
2407;DHT22;37709;53.480;9.688;2022-11-20T01:55:13;-0.60;99.90
2407;DHT22;37709;53.480;9.688;2022-11-20T01:57:41;-0.50;99.90
2407;DHT22;37709;53.480;9.688;2022-11-20T02:00:13;-0.50;99.90
2407;DHT22;37709;53.480;9.688;2022-11-20T02:02:51;-0.40;99.90
2407;DHT22;37709;53.480;9.688;2022-11-20T02:05:33;-0.40;99.90
2407;DHT22;37709;53.480;9.688;2022-11-20T02:08:03;-0.30;99.90
2407;DHT22;37709;53.480;9.688;2022-11-20T02:10:31;-0.30;99.90
2407;DHT22;37709;53.480;9.688;2022-11-20T02:12:59;-0.30;99.90
2407;DHT22;37709;53.480;9.688;2022-11-20T02:15:45;-0.30;99.90
2407;DHT22;37709;53.480;9.688;2022-11-20T02:18:15;-0.30;99.90
2407;DHT22;37709;53.480;9.688;2022-11-20T02:20:44;-0.20;99.90
2407;DHT22;37709;53.480;9.688;2022-11-20T02:23:28;-0.30;99.90
2407;DHT22;37709;53.480;9.688;2022-11-20T02:25:57;-0.20;99.90
2407;DHT22;37709;53.480;9.688;2022-11-20T02:28:25;-0.20;99.90
2407;DHT22;37709;53.480;9.688;2022-11-20T02:30:52;-0.20;99.90
2407;DHT22;37709;53.480;9.688;2022-11-20T02:33:19;-0.20;99.90
2407;DHT22;37709;53.480;9.688;2022-11-20T02:35:47;-0.20;99.90
2407;DHT22;37709;53.480;9.688;2022-11-20T02:38:15;-0.20;99.90
2407;DHT22;37709;53.480;9.688;2022-11-20T02:40:42;-0.30;99.90
2407;DHT22;37709;53.480;9.688;2022-11-20T02:43:10;-0.30;99.90
2407;DHT22;37709;53.480;9.688;2022-11-20T02:45:37;-0.20;99.90
2407;DHT22;37709;53.480;9.688;2022-11-20T02:48:06;-0.30;99.90
2407;DHT22;37709;53.480;9.688;2022-11-20T02:50:36;-0.30;99.90
2407;DHT22;37709;53.480;9.688;2022-11-20T02:53:04;-0.20;99.90
2407;DHT22;37709;53.480;9.688;2022-11-20T02:55:31;-0.10;99.90
2407;DHT22;37709;53.480;9.688;2022-11-20T02:57:59;-0.20;99.90
2407;DHT22;37709;53.480;9.688;2022-11-20T03:00:26;-0.20;99.90
2407;DHT22;37709;53.480;9.688;2022-11-20T03:02:54;-0.20;99.90
2407;DHT22;37709;53.480;9.688;2022-11-20T03:05:21;-0.20;99.90
2407;DHT22;37709;53.480;9.688;2022-11-20T03:07:48;-0.20;99.90
2407;DHT22;37709;53.480;9.688;2022-11-20T03:10:16;-0.10;99.90
2407;DHT22;37709;53.480;9.688;2022-11-20T03:12:44;-0.20;99.90
2407;DHT22;37709;53.480;9.688;2022-11-20T03:15:12;-0.10;99.90
2407;DHT22;37709;53.480;9.688;2022-11-20T03:17:39;0.00;99.90
2407;DHT22;37709;53.480;9.688;2022-11-20T03:20:07;0.00;99.90
2407;DHT22;37709;53.480;9.688;2022-11-20T03:22:35;-0.10;99.90
2407;DHT22;37709;53.480;9.688;2022-11-20T03:25:03;0.00;99.90
2407;DHT22;37709;53.480;9.688;2022-11-20T03:27:34;-0.10;99.90
2407;DHT22;37709;53.480;9.688;2022-11-20T03:30:02;-0.10;99.90
2407;DHT22;37709;53.480;9.688;2022-11-20T03:32:29;-0.10;99.90
2407;DHT22;37709;53.480;9.688;2022-11-20T03:34:56;0.00;99.90
2407;DHT22;37709;53.480;9.688;2022-11-20T03:37:24;-0.10;99.90
2407;DHT22;37709;53.480;9.688;2022-11-20T03:39:51;-0.10;99.90
2407;DHT22;37709;53.480;9.688;2022-11-20T03:42:18;-0.10;99.90
2407;DHT22;37709;53.480;9.688;2022-11-20T03:45:05;-0.10;99.90
2407;DHT22;37709;53.480;9.688;2022-11-20T03:47:32;-0.10;99.90
2407;DHT22;37709;53.480;9.688;2022-11-20T03:49:59;-0.10;99.90
2407;DHT22;37709;53.480;9.688;2022-11-20T03:52:27;0.00;99.90
2407;DHT22;37709;53.480;9.688;2022-11-20T03:54:54;0.00;99.90
2407;DHT22;37709;53.480;9.688;2022-11-20T03:57:21;-0.10;99.90
2407;DHT22;37709;53.480;9.688;2022-11-20T03:59:49;-0.10;99.90
2407;DHT22;37709;53.480;9.688;2022-11-20T04:02:16;0.00;99.90
2407;DHT22;37709;53.480;9.688;2022-11-20T04:04:43;-0.10;99.90
2407;DHT22;37709;53.480;9.688;2022-11-20T04:07:10;0.00;99.90
2407;DHT22;37709;53.480;9.688;2022-11-20T04:09:37;0.00;99.90
2407;DHT22;37709;53.480;9.688;2022-11-20T04:12:05;0.00;99.90
2407;DHT22;37709;53.480;9.688;2022-11-20T04:14:32;-0.10;99.90
2407;DHT22;37709;53.480;9.688;2022-11-20T04:16:59;-0.10;99.90
2407;DHT22;37709;53.480;9.688;2022-11-20T04:19:26;-0.10;99.90
2407;DHT22;37709;53.480;9.688;2022-11-20T04:21:54;-0.10;99.90
2407;DHT22;37709;53.480;9.688;2022-11-20T04:24:21;-0.10;99.90
2407;DHT22;37709;53.480;9.688;2022-11-20T04:26:48;-0.10;99.90
2407;DHT22;37709;53.480;9.688;2022-11-20T04:29:15;-0.20;99.90
2407;DHT22;37709;53.480;9.688;2022-11-20T04:31:43;-0.20;99.90
2407;DHT22;37709;53.480;9.688;2022-11-20T04:34:11;-0.20;99.90
2407;DHT22;37709;53.480;9.688;2022-11-20T04:36:38;-0.20;99.90
2407;DHT22;37709;53.480;9.688;2022-11-20T04:39:06;-0.20;99.90
2407;DHT22;37709;53.480;9.688;2022-11-20T04:41:36;-0.20;99.90
2407;DHT22;37709;53.480;9.688;2022-11-20T04:44:04;-0.20;99.90
2407;DHT22;37709;53.480;9.688;2022-11-20T04:46:35;-0.20;99.90
2407;DHT22;37709;53.480;9.688;2022-11-20T04:49:03;-0.20;99.90
2407;DHT22;37709;53.480;9.688;2022-11-20T04:51:31;-0.10;99.90
2407;DHT22;37709;53.480;9.688;2022-11-20T04:53:59;-0.10;99.90
2407;DHT22;37709;53.480;9.688;2022-11-20T04:56:26;-0.10;99.90
2407;DHT22;37709;53.480;9.688;2022-11-20T04:58:53;-0.10;99.90
2407;DHT22;37709;53.480;9.688;2022-11-20T05:01:23;-0.10;99.90
2407;DHT22;37709;53.480;9.688;2022-11-20T05:03:51;-0.10;99.90
2407;DHT22;37709;53.480;9.688;2022-11-20T05:06:20;-0.10;99.90
2407;DHT22;37709;53.480;9.688;2022-11-20T05:08:47;-0.10;99.90
2407;DHT22;37709;53.480;9.688;2022-11-20T05:11:17;-0.10;99.90
2407;DHT22;37709;53.480;9.688;2022-11-20T05:13:46;-0.10;99.90
2407;DHT22;37709;53.480;9.688;2022-11-20T05:16:19;-0.10;99.90
2407;DHT22;37709;53.480;9.688;2022-11-20T05:18:47;-0.10;99.90
2407;DHT22;37709;53.480;9.688;2022-11-20T05:21:15;-0.10;99.90
2407;DHT22;37709;53.480;9.688;2022-11-20T05:23:43;-0.10;99.90
2407;DHT22;37709;53.480;9.688;2022-11-20T05:26:18;-0.10;99.90
2407;DHT22;37709;53.480;9.688;2022-11-20T05:28:46;-0.10;99.90
2407;DHT22;37709;53.480;9.688;2022-11-20T05:31:24;-0.10;99.90
2407;DHT22;37709;53.480;9.688;2022-11-20T05:33:56;-0.10;99.90
2407;DHT22;37709;53.480;9.688;2022-11-20T05:36:23;-0.10;99.90
2407;DHT22;37709;53.480;9.688;2022-11-20T05:38:51;-0.10;99.90
2407;DHT22;37709;53.480;9.688;2022-11-20T05:41:24;-0.10;99.90
2407;DHT22;37709;53.480;9.688;2022-11-20T05:43:52;-0.10;99.90
2407;DHT22;37709;53.480;9.688;2022-11-20T05:46:20;-0.10;99.90
2407;DHT22;37709;53.480;9.688;2022-11-20T05:48:55;0.00;99.90
2407;DHT22;37709;53.480;9.688;2022-11-20T05:51:23;-0.10;99.90
2407;DHT22;37709;53.480;9.688;2022-11-20T05:53:50;-0.10;99.90
2407;DHT22;37709;53.480;9.688;2022-11-20T05:56:19;-0.10;99.90
2407;DHT22;37709;53.480;9.688;2022-11-20T05:58:48;-0.10;99.90
2407;DHT22;37709;53.480;9.688;2022-11-20T06:01:22;-0.10;99.90
2407;DHT22;37709;53.480;9.688;2022-11-20T06:03:50;-0.10;99.90
2407;DHT22;37709;53.480;9.688;2022-11-20T06:06:18;-0.10;99.90
2407;DHT22;37709;53.480;9.688;2022-11-20T06:08:46;-0.10;99.90
2407;DHT22;37709;53.480;9.688;2022-11-20T06:11:15;-0.10;99.90
2407;DHT22;37709;53.480;9.688;2022-11-20T06:13:43;-0.10;99.90
2407;DHT22;37709;53.480;9.688;2022-11-20T06:16:13;0.00;99.90
2407;DHT22;37709;53.480;9.688;2022-11-20T06:18:41;0.00;99.90
2407;DHT22;37709;53.480;9.688;2022-11-20T06:21:14;0.00;99.90
2407;DHT22;37709;53.480;9.688;2022-11-20T06:23:42;0.00;99.90
2407;DHT22;37709;53.480;9.688;2022-11-20T06:26:11;0.00;99.90
2407;DHT22;37709;53.480;9.688;2022-11-20T06:28:39;0.00;99.90
2407;DHT22;37709;53.480;9.688;2022-11-20T06:31:07;-0.10;99.90
2407;DHT22;37709;53.480;9.688;2022-11-20T06:33:34;0.00;99.90
2407;DHT22;37709;53.480;9.688;2022-11-20T06:36:02;-0.10;99.90
2407;DHT22;37709;53.480;9.688;2022-11-20T06:38:37;-0.10;99.90
2407;DHT22;37709;53.480;9.688;2022-11-20T06:41:05;-0.10;99.90
2407;DHT22;37709;53.480;9.688;2022-11-20T06:43:33;-0.10;99.90
2407;DHT22;37709;53.480;9.688;2022-11-20T06:46:00;-0.10;99.90
2407;DHT22;37709;53.480;9.688;2022-11-20T06:48:28;-0.10;99.90
2407;DHT22;37709;53.480;9.688;2022-11-20T06:50:56;-0.10;99.90
2407;DHT22;37709;53.480;9.688;2022-11-20T06:53:24;-0.10;99.90
2407;DHT22;37709;53.480;9.688;2022-11-20T06:55:52;-0.10;99.90
2407;DHT22;37709;53.480;9.688;2022-11-20T06:58:22;-0.10;99.90
2407;DHT22;37709;53.480;9.688;2022-11-20T07:00:49;-0.10;99.90
2407;DHT22;37709;53.480;9.688;2022-11-20T07:03:16;-0.10;99.90
2407;DHT22;37709;53.480;9.688;2022-11-20T07:05:44;-0.10;99.90
2407;DHT22;37709;53.480;9.688;2022-11-20T07:08:12;-0.10;99.90
2407;DHT22;37709;53.480;9.688;2022-11-20T07:10:39;-0.10;99.90
2407;DHT22;37709;53.480;9.688;2022-11-20T07:13:07;0.00;99.90
2407;DHT22;37709;53.480;9.688;2022-11-20T07:15:35;0.00;99.90
2407;DHT22;37709;53.480;9.688;2022-11-20T07:18:02;0.00;99.90
2407;DHT22;37709;53.480;9.688;2022-11-20T07:20:29;0.00;99.90
2407;DHT22;37709;53.480;9.688;2022-11-20T07:22:57;0.00;99.90
2407;DHT22;37709;53.480;9.688;2022-11-20T07:25:27;0.10;99.90
2407;DHT22;37709;53.480;9.688;2022-11-20T07:27:58;0.00;99.90
2407;DHT22;37709;53.480;9.688;2022-11-20T07:30:29;0.00;99.90
2407;DHT22;37709;53.480;9.688;2022-11-20T07:32:56;-0.10;99.90
2407;DHT22;37709;53.480;9.688;2022-11-20T07:35:24;-0.10;99.90
2407;DHT22;37709;53.480;9.688;2022-11-20T07:37:52;-0.20;99.90
2407;DHT22;37709;53.480;9.688;2022-11-20T07:40:19;-0.20;99.90
2407;DHT22;37709;53.480;9.688;2022-11-20T07:42:47;-0.30;99.90
2407;DHT22;37709;53.480;9.688;2022-11-20T07:45:16;-0.30;99.90
2407;DHT22;37709;53.480;9.688;2022-11-20T07:47:43;-0.30;99.90
2407;DHT22;37709;53.480;9.688;2022-11-20T07:50:11;-0.40;99.90
2407;DHT22;37709;53.480;9.688;2022-11-20T07:52:39;-0.30;99.90
2407;DHT22;37709;53.480;9.688;2022-11-20T07:55:07;-0.40;99.90
2407;DHT22;37709;53.480;9.688;2022-11-20T07:57:34;-0.30;99.90
2407;DHT22;37709;53.480;9.688;2022-11-20T08:00:04;-0.20;99.90
2407;DHT22;37709;53.480;9.688;2022-11-20T08:02:41;0.00;99.90
2407;DHT22;37709;53.480;9.688;2022-11-20T08:05:09;0.20;99.90
2407;DHT22;37709;53.480;9.688;2022-11-20T08:07:41;0.40;99.90
2407;DHT22;37709;53.480;9.688;2022-11-20T08:10:12;0.50;99.90
2407;DHT22;37709;53.480;9.688;2022-11-20T08:12:47;0.80;99.90
2407;DHT22;37709;53.480;9.688;2022-11-20T08:15:35;1.00;99.90
2407;DHT22;37709;53.480;9.688;2022-11-20T08:18:08;1.40;99.90
2407;DHT22;37709;53.480;9.688;2022-11-20T08:20:55;1.90;99.90
2407;DHT22;37709;53.480;9.688;2022-11-20T08:23:23;2.40;99.90
2407;DHT22;37709;53.480;9.688;2022-11-20T08:25:50;2.70;99.90
2407;DHT22;37709;53.480;9.688;2022-11-20T08:28:18;2.80;99.90
2407;DHT22;37709;53.480;9.688;2022-11-20T08:30:49;2.40;99.90
2407;DHT22;37709;53.480;9.688;2022-11-20T08:33:17;2.20;99.90
2407;DHT22;37709;53.480;9.688;2022-11-20T08:35:45;2.10;99.90
2407;DHT22;37709;53.480;9.688;2022-11-20T08:38:12;2.10;99.90
2407;DHT22;37709;53.480;9.688;2022-11-20T08:40:39;2.20;99.90
2407;DHT22;37709;53.480;9.688;2022-11-20T08:43:07;4.30;99.90
2407;DHT22;37709;53.480;9.688;2022-11-20T08:45:34;6.20;99.90
2407;DHT22;37709;53.480;9.688;2022-11-20T08:48:02;7.20;99.90
2407;DHT22;37709;53.480;9.688;2022-11-20T08:50:31;6.30;99.90
2407;DHT22;37709;53.480;9.688;2022-11-20T08:53:06;6.70;99.90
2407;DHT22;37709;53.480;9.688;2022-11-20T08:55:33;8.30;99.90
2407;DHT22;37709;53.480;9.688;2022-11-20T08:58:05;7.30;99.90
2407;DHT22;37709;53.480;9.688;2022-11-20T09:00:33;6.20;99.90
2407;DHT22;37709;53.480;9.688;2022-11-20T09:03:00;5.50;99.90
2407;DHT22;37709;53.480;9.688;2022-11-20T09:05:29;5.10;99.90
2407;DHT22;37709;53.480;9.688;2022-11-20T09:07:57;4.70;99.90
2407;DHT22;37709;53.480;9.688;2022-11-20T09:10:25;4.40;99.90
2407;DHT22;37709;53.480;9.688;2022-11-20T09:12:52;4.70;99.90
2407;DHT22;37709;53.480;9.688;2022-11-20T09:15:21;4.90;99.90
2407;DHT22;37709;53.480;9.688;2022-11-20T09:17:56;4.90;99.90
2407;DHT22;37709;53.480;9.688;2022-11-20T09:20:24;7.30;99.90
2407;DHT22;37709;53.480;9.688;2022-11-20T09:22:52;8.60;99.90
2407;DHT22;37709;53.480;9.688;2022-11-20T09:25:19;10.60;99.90
2407;DHT22;37709;53.480;9.688;2022-11-20T09:27:46;9.70;99.10
2407;DHT22;37709;53.480;9.688;2022-11-20T09:30:14;8.00;99.90
2407;DHT22;37709;53.480;9.688;2022-11-20T09:32:42;6.40;99.90
2407;DHT22;37709;53.480;9.688;2022-11-20T09:35:10;6.00;99.90
2407;DHT22;37709;53.480;9.688;2022-11-20T09:37:38;5.60;99.90
2407;DHT22;37709;53.480;9.688;2022-11-20T09:40:09;7.60;99.90
2407;DHT22;37709;53.480;9.688;2022-11-20T09:42:57;9.90;99.90
2407;DHT22;37709;53.480;9.688;2022-11-20T09:45:50;10.70;99.10
2407;DHT22;37709;53.480;9.688;2022-11-20T09:48:48;10.40;97.50
2407;DHT22;37709;53.480;9.688;2022-11-20T09:54:04;11.80;97.70
2407;DHT22;37709;53.480;9.688;2022-11-20T09:56:37;13.80;94.20
2407;DHT22;37709;53.480;9.688;2022-11-20T09:59:08;13.50;91.90
2407;DHT22;37709;53.480;9.688;2022-11-20T10:01:39;11.60;92.80
2407;DHT22;37709;53.480;9.688;2022-11-20T10:04:18;10.10;94.10
2407;DHT22;37709;53.480;9.688;2022-11-20T10:07:00;9.30;96.70
2407;DHT22;37709;53.480;9.688;2022-11-20T10:09:53;8.60;97.70
2407;DHT22;37709;53.480;9.688;2022-11-20T10:12:50;8.40;98.70
2407;DHT22;37709;53.480;9.688;2022-11-20T10:18:09;9.70;97.80
2407;DHT22;37709;53.480;9.688;2022-11-20T10:24:10;9.20;96.90
2407;DHT22;37709;53.480;9.688;2022-11-20T10:26:54;7.40;98.30
2407;DHT22;37709;53.480;9.688;2022-11-20T10:29:33;6.30;99.90
2407;DHT22;37709;53.480;9.688;2022-11-20T10:32:09;5.60;99.90
2407;DHT22;37709;53.480;9.688;2022-11-20T10:34:51;8.20;99.90
2407;DHT22;37709;53.480;9.688;2022-11-20T10:37:26;10.70;98.70
2407;DHT22;37709;53.480;9.688;2022-11-20T10:39:59;11.80;95.70
2407;DHT22;37709;53.480;9.688;2022-11-20T10:42:55;13.40;93.20
2407;DHT22;37709;53.480;9.688;2022-11-20T10:48:12;10.50;92.40
2407;DHT22;37709;53.480;9.688;2022-11-20T10:50:57;9.20;96.10
2407;DHT22;37709;53.480;9.688;2022-11-20T10:54:00;8.80;96.30
2407;DHT22;37709;53.480;9.688;2022-11-20T10:56:47;10.70;96.60
2407;DHT22;37709;53.480;9.688;2022-11-20T10:59:41;14.60;91.40
2407;DHT22;37709;53.480;9.688;2022-11-20T11:02:16;12.00;90.90
2407;DHT22;37709;53.480;9.688;2022-11-20T11:04:47;9.90;94.10
2407;DHT22;37709;53.480;9.688;2022-11-20T11:07:22;8.30;95.60
2407;DHT22;37709;53.480;9.688;2022-11-20T11:09:55;7.10;97.60
2407;DHT22;37709;53.480;9.688;2022-11-20T11:12:28;6.20;99.80
2407;DHT22;37709;53.480;9.688;2022-11-20T11:14:56;5.60;99.90
2407;DHT22;37709;53.480;9.688;2022-11-20T11:17:31;5.50;99.90
2407;DHT22;37709;53.480;9.688;2022-11-20T11:20:01;5.30;99.90
2407;DHT22;37709;53.480;9.688;2022-11-20T11:22:31;5.40;99.90
2407;DHT22;37709;53.480;9.688;2022-11-20T11:24:59;5.50;99.90
2407;DHT22;37709;53.480;9.688;2022-11-20T11:27:26;5.80;99.90
2407;DHT22;37709;53.480;9.688;2022-11-20T11:30:12;6.10;99.90
2407;DHT22;37709;53.480;9.688;2022-11-20T11:32:41;6.50;99.90
2407;DHT22;37709;53.480;9.688;2022-11-20T11:35:26;6.50;99.90
2407;DHT22;37709;53.480;9.688;2022-11-20T11:38:05;5.90;99.90
2407;DHT22;37709;53.480;9.688;2022-11-20T11:40:36;5.30;99.90
2407;DHT22;37709;53.480;9.688;2022-11-20T11:43:30;4.90;99.90
2407;DHT22;37709;53.480;9.688;2022-11-20T11:49:01;4.00;99.90
2407;DHT22;37709;53.480;9.688;2022-11-20T11:51:39;3.70;99.90
2407;DHT22;37709;53.480;9.688;2022-11-20T11:54:20;4.00;99.90
2407;DHT22;37709;53.480;9.688;2022-11-20T11:56:51;6.60;99.90
2407;DHT22;37709;53.480;9.688;2022-11-20T11:59:46;10.80;99.90
2407;DHT22;37709;53.480;9.688;2022-11-20T12:02:29;14.30;92.70
2407;DHT22;37709;53.480;9.688;2022-11-20T12:05:15;13.60;85.20
2407;DHT22;37709;53.480;9.688;2022-11-20T12:10:28;9.40;92.70
2407;DHT22;37709;53.480;9.688;2022-11-20T12:13:08;8.10;94.30
2407;DHT22;37709;53.480;9.688;2022-11-20T12:15:44;7.30;97.00
2407;DHT22;37709;53.480;9.688;2022-11-20T12:18:20;6.70;97.90
2407;DHT22;37709;53.480;9.688;2022-11-20T12:21:01;6.30;98.60
2407;DHT22;37709;53.480;9.688;2022-11-20T12:23:44;5.90;99.10
2407;DHT22;37709;53.480;9.688;2022-11-20T12:26:33;5.80;99.90
2407;DHT22;37709;53.480;9.688;2022-11-20T12:29:32;5.90;99.90
2407;DHT22;37709;53.480;9.688;2022-11-20T12:35:05;8.00;99.90
2407;DHT22;37709;53.480;9.688;2022-11-20T12:41:03;10.90;94.70
2407;DHT22;37709;53.480;9.688;2022-11-20T12:43:41;13.30;91.40
2407;DHT22;37709;53.480;9.688;2022-11-20T12:46:51;14.60;87.70
2407;DHT22;37709;53.480;9.688;2022-11-20T12:49:31;14.90;82.60
2407;DHT22;37709;53.480;9.688;2022-11-20T12:55:11;9.80;91.40
2407;DHT22;37709;53.480;9.688;2022-11-20T12:57:57;8.50;94.20
2407;DHT22;37709;53.480;9.688;2022-11-20T13:00:25;7.60;96.00
2407;DHT22;37709;53.480;9.688;2022-11-20T13:03:32;7.00;97.50
2407;DHT22;37709;53.480;9.688;2022-11-20T13:08:39;6.00;99.90
2407;DHT22;37709;53.480;9.688;2022-11-20T13:11:25;5.70;99.90
2407;DHT22;37709;53.480;9.688;2022-11-20T13:19:22;5.20;99.90
2407;DHT22;37709;53.480;9.688;2022-11-20T13:21:50;5.20;99.90
2407;DHT22;37709;53.480;9.688;2022-11-20T13:29:36;4.60;99.90
2407;DHT22;37709;53.480;9.688;2022-11-20T13:32:19;4.50;99.90
2407;DHT22;37709;53.480;9.688;2022-11-20T13:35:01;4.50;99.90
2407;DHT22;37709;53.480;9.688;2022-11-20T13:37:34;4.50;99.90
2407;DHT22;37709;53.480;9.688;2022-11-20T13:42:40;4.20;99.90
2407;DHT22;37709;53.480;9.688;2022-11-20T13:45:21;4.00;99.90
2407;DHT22;37709;53.480;9.688;2022-11-20T13:47:50;3.70;99.90
2407;DHT22;37709;53.480;9.688;2022-11-20T13:50:18;3.60;99.90
2407;DHT22;37709;53.480;9.688;2022-11-20T13:53:01;3.30;99.90
2407;DHT22;37709;53.480;9.688;2022-11-20T13:56:00;3.10;99.90
2407;DHT22;37709;53.480;9.688;2022-11-20T13:58:50;2.90;99.90
2407;DHT22;37709;53.480;9.688;2022-11-20T14:01:24;2.80;99.90
2407;DHT22;37709;53.480;9.688;2022-11-20T14:03:53;2.60;99.90
2407;DHT22;37709;53.480;9.688;2022-11-20T14:06:42;2.60;99.90
2407;DHT22;37709;53.480;9.688;2022-11-20T14:09:28;2.50;99.90
2407;DHT22;37709;53.480;9.688;2022-11-20T14:11:55;2.30;99.90
2407;DHT22;37709;53.480;9.688;2022-11-20T14:14:25;2.20;99.90
2407;DHT22;37709;53.480;9.688;2022-11-20T14:17:05;2.00;99.90
2407;DHT22;37709;53.480;9.688;2022-11-20T14:19:34;1.80;99.90
2407;DHT22;37709;53.480;9.688;2022-11-20T14:22:08;1.60;99.90
2407;DHT22;37709;53.480;9.688;2022-11-20T14:24:37;1.50;99.90
2407;DHT22;37709;53.480;9.688;2022-11-20T14:27:04;1.50;99.90
2407;DHT22;37709;53.480;9.688;2022-11-20T14:29:36;1.50;99.90
2407;DHT22;37709;53.480;9.688;2022-11-20T14:32:04;1.50;99.90
2407;DHT22;37709;53.480;9.688;2022-11-20T14:34:37;1.60;99.90
2407;DHT22;37709;53.480;9.688;2022-11-20T14:37:06;1.70;99.90
2407;DHT22;37709;53.480;9.688;2022-11-20T14:39:54;1.80;99.90
2407;DHT22;37709;53.480;9.688;2022-11-20T14:42:24;1.80;99.90
2407;DHT22;37709;53.480;9.688;2022-11-20T14:44:54;1.90;99.90
2407;DHT22;37709;53.480;9.688;2022-11-20T14:47:30;1.90;99.90
2407;DHT22;37709;53.480;9.688;2022-11-20T14:49:58;1.90;99.90
2407;DHT22;37709;53.480;9.688;2022-11-20T14:52:34;1.90;99.90
2407;DHT22;37709;53.480;9.688;2022-11-20T14:55:02;1.90;99.90
2407;DHT22;37709;53.480;9.688;2022-11-20T14:57:31;1.90;99.90
2407;DHT22;37709;53.480;9.688;2022-11-20T15:02:46;1.80;99.90
2407;DHT22;37709;53.480;9.688;2022-11-20T15:05:15;1.80;99.90
2407;DHT22;37709;53.480;9.688;2022-11-20T15:07:45;1.80;99.90
2407;DHT22;37709;53.480;9.688;2022-11-20T15:10:26;1.80;99.90
2407;DHT22;37709;53.480;9.688;2022-11-20T15:12:56;1.70;99.90
2407;DHT22;37709;53.480;9.688;2022-11-20T15:15:32;1.60;99.90
2407;DHT22;37709;53.480;9.688;2022-11-20T15:18:01;1.50;99.90
2407;DHT22;37709;53.480;9.688;2022-11-20T15:20:31;1.30;99.90
2407;DHT22;37709;53.480;9.688;2022-11-20T15:22:59;1.20;99.90
2407;DHT22;37709;53.480;9.688;2022-11-20T15:25:26;1.10;99.90
2407;DHT22;37709;53.480;9.688;2022-11-20T15:27:55;1.10;99.90
2407;DHT22;37709;53.480;9.688;2022-11-20T15:30:24;1.00;99.90
2407;DHT22;37709;53.480;9.688;2022-11-20T15:32:52;0.90;99.90
2407;DHT22;37709;53.480;9.688;2022-11-20T15:35:19;0.80;99.90
2407;DHT22;37709;53.480;9.688;2022-11-20T15:37:46;0.50;99.90
2407;DHT22;37709;53.480;9.688;2022-11-20T15:40:13;0.30;99.90
2407;DHT22;37709;53.480;9.688;2022-11-20T15:42:41;0.00;99.90
2407;DHT22;37709;53.480;9.688;2022-11-20T15:45:36;-0.10;99.90
2407;DHT22;37709;53.480;9.688;2022-11-20T15:48:17;-0.20;99.90
2407;DHT22;37709;53.480;9.688;2022-11-20T15:50:59;-0.30;99.90
2407;DHT22;37709;53.480;9.688;2022-11-20T15:53:28;-0.40;99.90
2407;DHT22;37709;53.480;9.688;2022-11-20T15:55:55;-0.50;99.90
2407;DHT22;37709;53.480;9.688;2022-11-20T15:58:22;-0.40;99.90
2407;DHT22;37709;53.480;9.688;2022-11-20T16:00:54;-0.40;99.90
2407;DHT22;37709;53.480;9.688;2022-11-20T16:03:21;-0.50;99.90
2407;DHT22;37709;53.480;9.688;2022-11-20T16:05:49;-0.60;99.90
2407;DHT22;37709;53.480;9.688;2022-11-20T16:08:16;-0.60;99.90
2407;DHT22;37709;53.480;9.688;2022-11-20T16:10:44;-0.60;99.90
2407;DHT22;37709;53.480;9.688;2022-11-20T16:13:16;-0.50;99.90
2407;DHT22;37709;53.480;9.688;2022-11-20T16:16:09;-0.50;99.90
2407;DHT22;37709;53.480;9.688;2022-11-20T16:18:38;-0.40;99.90
2407;DHT22;37709;53.480;9.688;2022-11-20T16:21:11;-0.30;99.90
2407;DHT22;37709;53.480;9.688;2022-11-20T16:23:40;-0.20;99.90
2407;DHT22;37709;53.480;9.688;2022-11-20T16:26:13;-0.20;99.90
2407;DHT22;37709;53.480;9.688;2022-11-20T16:28:40;-0.30;99.90
2407;DHT22;37709;53.480;9.688;2022-11-20T16:31:09;-0.40;99.90
2407;DHT22;37709;53.480;9.688;2022-11-20T16:33:37;-0.60;99.90
2407;DHT22;37709;53.480;9.688;2022-11-20T16:36:12;-0.70;99.90
2407;DHT22;37709;53.480;9.688;2022-11-20T16:38:40;-0.80;99.90
2407;DHT22;37709;53.480;9.688;2022-11-20T16:41:08;-0.90;99.90
2407;DHT22;37709;53.480;9.688;2022-11-20T16:43:47;-1.00;99.90
2407;DHT22;37709;53.480;9.688;2022-11-20T16:46:20;-1.00;99.90
2407;DHT22;37709;53.480;9.688;2022-11-20T16:48:58;-1.10;99.90
2407;DHT22;37709;53.480;9.688;2022-11-20T16:51:28;-1.00;99.90
2407;DHT22;37709;53.480;9.688;2022-11-20T16:53:56;-1.10;99.90
2407;DHT22;37709;53.480;9.688;2022-11-20T16:56:26;-1.20;99.90
2407;DHT22;37709;53.480;9.688;2022-11-20T16:58:56;-1.20;99.90
2407;DHT22;37709;53.480;9.688;2022-11-20T17:01:24;-1.30;99.90
2407;DHT22;37709;53.480;9.688;2022-11-20T17:03:54;-1.30;99.90
2407;DHT22;37709;53.480;9.688;2022-11-20T17:06:24;-1.10;99.90
2407;DHT22;37709;53.480;9.688;2022-11-20T17:08:53;-1.30;99.90